createdAt,value
2022-08-17T00:00:49.594Z,20.10
2022-08-17T00:04:20.282Z,20.08
2022-08-17T00:07:48.261Z,20.06
2022-08-17T00:11:19.845Z,20.05
2022-08-17T00:14:47.165Z,20.07
2022-08-17T00:19:00.918Z,20.07
2022-08-17T00:22:33.912Z,20.03
2022-08-17T00:25:52.282Z,20.00
2022-08-17T00:29:19.615Z,19.98
2022-08-17T00:33:12.228Z,19.95
2022-08-17T00:36:37.409Z,19.94
2022-08-17T00:40:05.612Z,19.92
2022-08-17T00:43:42.224Z,19.85
2022-08-17T00:47:10.029Z,19.81
2022-08-17T00:50:40.215Z,19.75
2022-08-17T00:54:12.737Z,19.68
2022-08-17T00:57:44.617Z,19.63
2022-08-17T01:01:21.678Z,19.56
2022-08-17T01:04:54.310Z,19.53
2022-08-17T01:08:25.715Z,19.51
2022-08-17T01:11:53.737Z,19.50
2022-08-17T01:15:20.977Z,19.51
2022-08-17T01:18:50.588Z,19.55
2022-08-17T01:22:24.491Z,19.55
2022-08-17T01:25:54.234Z,19.53
2022-08-17T01:29:23.466Z,19.51
2022-08-17T01:32:50.504Z,19.50
2022-08-17T01:36:18.597Z,19.48
2022-08-17T01:39:50.608Z,19.46
2022-08-17T01:43:23.150Z,19.48
2022-08-17T01:46:50.527Z,19.49
2022-08-17T01:50:23.705Z,19.48
2022-08-17T01:53:53.547Z,19.47
2022-08-17T01:57:20.953Z,19.47
2022-08-17T02:01:01.082Z,19.45
2022-08-17T02:04:28.667Z,19.45
2022-08-17T02:08:00.385Z,19.46
2022-08-17T02:11:27.735Z,19.47
2022-08-17T02:14:55.599Z,19.47
2022-08-17T02:18:22.951Z,19.46
2022-08-17T02:21:52.881Z,19.44
2022-08-17T02:25:22.127Z,19.42
2022-08-17T02:28:51.232Z,19.39
2022-08-17T02:32:28.360Z,19.39
2022-08-17T02:35:55.925Z,19.38
2022-08-17T02:39:23.079Z,19.35
2022-08-17T02:42:50.524Z,19.31
2022-08-17T02:46:19.974Z,19.27
2022-08-17T02:49:54.231Z,19.24
2022-08-17T02:53:22.940Z,19.21
2022-08-17T02:56:56.858Z,19.18
2022-08-17T03:00:29.241Z,19.16
2022-08-17T03:03:57.581Z,19.16
2022-08-17T03:07:24.547Z,19.19
2022-08-17T03:10:51.751Z,19.20
2022-08-17T03:14:19.899Z,19.22
2022-08-17T03:18:01.980Z,19.24
2022-08-17T03:21:29.183Z,19.24
2022-08-17T03:24:56.557Z,19.24
2022-08-17T03:28:25.207Z,19.24
2022-08-17T03:31:52.775Z,19.22
2022-08-17T03:35:22.493Z,19.20
2022-08-17T03:38:49.820Z,19.20
2022-08-17T03:42:31.962Z,19.17
2022-08-17T03:46:28.178Z,19.17
2022-08-17T03:50:33.904Z,19.18
2022-08-17T03:54:19.819Z,19.19
2022-08-17T03:57:49.262Z,19.20
2022-08-17T04:01:18.245Z,19.20
2022-08-17T04:04:46.388Z,19.21
2022-08-17T04:08:14.744Z,19.19
2022-08-17T04:11:42.298Z,19.20
2022-08-17T04:15:13.331Z,19.23
2022-08-17T04:18:40.154Z,19.22
2022-08-17T04:22:07.753Z,19.25
2022-08-17T04:25:37.081Z,19.28
2022-08-17T04:29:04.217Z,19.30
2022-08-17T04:33:03.902Z,19.33
2022-08-17T04:36:19.963Z,19.37
2022-08-17T04:40:06.826Z,19.39
2022-08-17T04:43:35.737Z,19.42
2022-08-17T04:47:03.166Z,19.44
2022-08-17T04:50:30.365Z,19.48
2022-08-17T04:54:00.882Z,19.56
2022-08-17T04:57:28.245Z,19.63
2022-08-17T05:00:57.114Z,19.71
2022-08-17T05:04:34.522Z,19.77
2022-08-17T05:08:05.784Z,19.84
2022-08-17T05:11:34.307Z,19.91
2022-08-17T05:15:01.852Z,20.00
2022-08-17T05:18:30.958Z,20.07
2022-08-17T05:21:58.267Z,20.18
2022-08-17T05:25:29.111Z,20.30
2022-08-17T05:29:02.743Z,20.41
2022-08-17T05:32:38.951Z,20.48
2022-08-17T05:36:11.113Z,20.55
2022-08-17T05:39:58.788Z,20.65
2022-08-17T05:43:28.107Z,20.74
2022-08-17T05:46:56.819Z,20.85
2022-08-17T05:50:29.810Z,20.94
2022-08-17T05:54:08.841Z,21.03
2022-08-17T05:58:02.954Z,21.14
2022-08-17T06:01:41.130Z,21.24
2022-08-17T06:05:26.047Z,21.34
2022-08-17T06:08:59.070Z,21.43
2022-08-17T06:12:42.611Z,21.52
2022-08-17T06:16:25.882Z,21.60
2022-08-17T06:20:04.768Z,21.70
2022-08-17T06:23:36.176Z,21.79
2022-08-17T06:27:09.438Z,21.87
2022-08-17T06:30:59.219Z,21.97
2022-08-17T06:34:28.262Z,22.08
2022-08-17T06:38:10.709Z,22.21
2022-08-17T06:43:02.569Z,22.32
2022-08-17T06:46:04.559Z,22.45
2022-08-17T06:49:42.157Z,22.56
2022-08-17T06:53:22.732Z,22.66
2022-08-17T06:56:55.504Z,22.74
2022-08-17T07:00:22.618Z,22.84
2022-08-17T07:03:55.990Z,22.91
2022-08-17T07:07:43.195Z,23.00
2022-08-17T07:11:17.576Z,23.11
2022-08-17T07:14:52.178Z,23.19
2022-08-17T07:18:19.940Z,23.25
2022-08-17T07:21:55.288Z,23.33
2022-08-17T07:25:24.713Z,23.40
2022-08-17T07:28:56.498Z,23.48
2022-08-17T07:32:28.317Z,23.56
2022-08-17T07:35:58.536Z,23.66
2022-08-17T07:39:30.692Z,23.71
2022-08-17T07:43:23.307Z,23.76
2022-08-17T07:47:24.445Z,23.79
2022-08-17T07:50:53.571Z,23.85
2022-08-17T07:54:29.290Z,23.91
2022-08-17T07:58:02.188Z,23.94
2022-08-17T08:01:28.127Z,23.94
2022-08-17T08:05:48.837Z,23.97
2022-08-17T08:09:09.115Z,24.07
2022-08-17T08:12:45.479Z,24.17
2022-08-17T08:16:28.435Z,24.31
2022-08-17T08:19:55.846Z,24.41
2022-08-17T08:23:35.331Z,24.51
2022-08-17T08:27:09.682Z,24.62
2022-08-17T08:30:48.335Z,24.72
2022-08-17T08:34:53.175Z,24.84
2022-08-17T08:38:22.644Z,24.96
2022-08-17T08:42:02.175Z,25.03
2022-08-17T08:45:38.659Z,25.11
2022-08-17T08:50:02.742Z,25.20
2022-08-17T08:53:37.120Z,25.31
2022-08-17T08:57:25.523Z,25.39
2022-08-17T09:01:00.812Z,25.47
2022-08-17T09:05:13.402Z,25.59
2022-08-17T09:08:55.900Z,25.71
2022-08-17T09:12:30.105Z,25.82
2022-08-17T09:16:01.909Z,25.91
2022-08-17T09:19:38.529Z,26.00
2022-08-17T09:23:09.109Z,26.09
2022-08-17T09:26:43.433Z,26.18
2022-08-17T09:30:15.797Z,26.26
2022-08-17T09:33:48.582Z,26.34
2022-08-17T09:37:21.630Z,26.44
2022-08-17T09:40:54.603Z,26.54
2022-08-17T09:44:38.131Z,26.67
2022-08-17T09:48:14.657Z,26.78
2022-08-17T09:51:50.365Z,26.85
2022-08-17T09:55:18.916Z,26.90
2022-08-17T09:59:04.535Z,26.98
2022-08-17T10:03:16.830Z,27.07
2022-08-17T10:06:59.572Z,27.22
2022-08-17T10:10:43.109Z,27.35
2022-08-17T10:14:37.979Z,27.43
2022-08-17T10:18:31.801Z,27.53
2022-08-17T10:22:34.994Z,27.65
2022-08-17T10:26:15.957Z,27.81
2022-08-17T10:29:49.922Z,27.91
2022-08-17T10:33:23.977Z,27.99
2022-08-17T10:37:47.113Z,28.10
2022-08-17T10:41:33.904Z,28.21
2022-08-17T10:45:19.147Z,28.32
2022-08-17T10:49:06.194Z,28.42
2022-08-17T10:52:52.233Z,28.51
2022-08-17T10:56:41.093Z,28.63
2022-08-17T11:00:28.189Z,28.78
2022-08-17T11:03:58.671Z,28.86
2022-08-17T11:07:44.134Z,28.93
2022-08-17T11:11:43.343Z,29.06
2022-08-17T11:15:44.031Z,29.14
2022-08-17T11:19:41.670Z,29.29
2022-08-17T11:23:34.149Z,29.43
2022-08-17T11:27:12.227Z,29.53
2022-08-17T11:30:51.617Z,29.60
2022-08-17T11:34:23.699Z,29.69
2022-08-17T11:38:01.081Z,29.80
2022-08-17T11:41:37.943Z,29.90
2022-08-17T11:45:31.898Z,29.99
2022-08-17T11:49:35.208Z,30.08
2022-08-17T11:53:02.217Z,30.15
2022-08-17T11:56:44.550Z,30.22
2022-08-17T12:00:55.106Z,30.41
2022-08-17T12:04:32.038Z,30.63
2022-08-17T12:08:12.744Z,30.81
2022-08-17T12:11:56.359Z,30.96
2022-08-17T12:15:42.935Z,31.10
2022-08-17T12:19:23.019Z,31.26
2022-08-17T12:23:01.480Z,31.48
2022-08-17T12:26:33.030Z,31.71
2022-08-17T12:30:01.852Z,31.97
2022-08-17T12:33:29.173Z,32.24
2022-08-17T12:37:01.842Z,32.48
2022-08-17T12:40:32.770Z,32.69
2022-08-17T12:44:02.999Z,32.76
2022-08-17T12:47:32.172Z,32.64
2022-08-17T12:51:05.019Z,32.60
2022-08-17T12:54:43.652Z,32.78
2022-08-17T12:58:18.573Z,33.05
2022-08-17T13:01:47.946Z,33.16
2022-08-17T13:05:25.542Z,33.40
2022-08-17T13:08:53.125Z,33.71
2022-08-17T13:12:29.679Z,33.92
2022-08-17T13:15:59.876Z,33.78
2022-08-17T13:19:29.842Z,33.89
2022-08-17T13:23:12.629Z,34.09
2022-08-17T13:26:45.878Z,34.27
2022-08-17T13:30:22.151Z,34.40
2022-08-17T13:33:49.536Z,34.59
2022-08-17T13:37:34.556Z,34.79
2022-08-17T13:41:01.757Z,34.96
2022-08-17T13:44:41.496Z,35.10
2022-08-17T13:48:14.891Z,35.22
2022-08-17T13:51:50.492Z,35.35
2022-08-17T13:55:24.071Z,35.47
2022-08-17T13:58:58.489Z,35.57
2022-08-17T14:02:28.524Z,35.70
2022-08-17T14:05:58.839Z,35.84
2022-08-17T14:09:33.562Z,35.97
2022-08-17T14:13:03.906Z,36.06
2022-08-17T14:16:31.036Z,36.10
2022-08-17T14:19:58.743Z,36.13
2022-08-17T14:23:25.429Z,36.19
2022-08-17T14:26:53.898Z,36.23
2022-08-17T14:30:21.578Z,36.20
2022-08-17T14:33:48.905Z,36.18
2022-08-17T14:37:15.746Z,36.16
2022-08-17T14:40:43.315Z,36.13
2022-08-17T14:44:13.128Z,36.08
2022-08-17T14:47:42.701Z,36.08
2022-08-17T14:51:12.157Z,36.10
2022-08-17T14:54:42.515Z,36.11
2022-08-17T14:58:13.447Z,36.12
2022-08-17T15:01:41.480Z,36.15
2022-08-17T15:05:10.305Z,36.22
2022-08-17T15:08:38.125Z,36.21
2022-08-17T15:12:06.788Z,36.09
2022-08-17T15:15:34.412Z,35.97
2022-08-17T15:19:01.466Z,35.88
2022-08-17T15:22:29.852Z,35.67
2022-08-17T15:25:57.876Z,35.36
2022-08-17T15:29:25.743Z,35.04
2022-08-17T15:32:55.149Z,34.70
2022-08-17T15:36:23.395Z,34.39
2022-08-17T15:39:50.213Z,34.10
2022-08-17T15:43:24.842Z,33.85
2022-08-17T15:46:54.228Z,33.63
2022-08-17T15:50:21.954Z,33.39
2022-08-17T15:53:52.494Z,33.15
2022-08-17T15:57:20.373Z,32.98
2022-08-17T16:00:52.966Z,32.82
2022-08-17T16:04:34.386Z,32.63
2022-08-17T16:08:01.897Z,32.43
2022-08-17T16:11:29.483Z,32.26
2022-08-17T16:14:59.035Z,32.08
2022-08-17T16:18:32.055Z,31.89
2022-08-17T16:21:59.560Z,31.71
2022-08-17T16:25:38.290Z,31.55
2022-08-17T16:29:18.634Z,31.36
2022-08-17T16:32:45.886Z,31.20
2022-08-17T16:36:13.266Z,31.07
2022-08-17T16:39:42.508Z,30.94
2022-08-17T16:43:12.644Z,30.82
2022-08-17T16:46:40.631Z,30.71
2022-08-17T16:50:16.241Z,30.59
2022-08-17T16:53:44.789Z,30.48
2022-08-17T16:57:14.353Z,30.37
2022-08-17T17:00:42.657Z,30.26
2022-08-17T17:04:19.123Z,30.15
2022-08-17T17:08:01.153Z,30.04
2022-08-17T17:11:34.134Z,29.92
2022-08-17T17:15:01.978Z,29.83
2022-08-17T17:18:40.644Z,29.74
2022-08-17T17:22:15.343Z,29.65
2022-08-17T17:26:01.415Z,29.56
2022-08-17T17:29:48.125Z,29.47
2022-08-17T17:33:32.875Z,29.39
2022-08-17T17:37:11.898Z,29.32
2022-08-17T17:40:46.605Z,29.24
2022-08-17T17:44:19.854Z,29.16
2022-08-17T17:47:48.829Z,29.08
2022-08-17T17:51:58.156Z,29.01
2022-08-17T17:55:27.299Z,28.91
2022-08-17T17:59:03.417Z,28.82
2022-08-17T18:02:52.765Z,28.73
2022-08-17T18:06:36.649Z,28.63
2022-08-17T18:10:19.740Z,28.53
2022-08-17T18:14:16.067Z,28.40
2022-08-17T18:18:03.995Z,28.28
2022-08-17T18:21:39.909Z,28.14
2022-08-17T18:25:46.424Z,27.99
2022-08-17T18:29:37.562Z,27.84
2022-08-17T18:33:25.341Z,27.71
2022-08-17T18:36:58.239Z,27.62
2022-08-17T18:40:40.817Z,27.52
2022-08-17T18:44:30.254Z,27.41
2022-08-17T18:48:01.235Z,27.30
2022-08-17T18:51:42.269Z,27.21
2022-08-17T18:55:15.287Z,27.10
2022-08-17T18:58:43.734Z,27.00
2022-08-17T19:02:43.813Z,26.90
2022-08-17T19:06:24.368Z,26.80
2022-08-17T19:09:58.957Z,26.72
2022-08-17T19:13:32.366Z,26.63
2022-08-17T19:17:05.095Z,26.56
2022-08-17T19:20:45.131Z,26.50
2022-08-17T19:24:19.810Z,26.42
2022-08-17T19:27:57.659Z,26.31
2022-08-17T19:31:29.621Z,26.21
2022-08-17T19:35:01.091Z,26.11
2022-08-17T19:38:42.000Z,26.02
2022-08-17T19:42:18.215Z,25.94
2022-08-17T19:45:56.348Z,25.89
2022-08-17T19:49:40.892Z,25.86
2022-08-17T19:53:20.253Z,25.82
2022-08-17T19:56:56.931Z,25.79
2022-08-17T20:00:24.222Z,25.74
2022-08-17T20:04:00.313Z,25.69
2022-08-17T20:07:41.479Z,25.63
2022-08-17T20:11:12.117Z,25.58
2022-08-17T20:14:53.612Z,25.52
2022-08-17T20:18:29.053Z,25.46
2022-08-17T20:22:00.789Z,25.40
2022-08-17T20:25:37.593Z,25.32
2022-08-17T20:29:37.472Z,25.27
2022-08-17T20:33:23.018Z,25.22
2022-08-17T20:37:05.351Z,25.17
2022-08-17T20:40:38.722Z,25.12
2022-08-17T20:44:08.005Z,25.10
2022-08-17T20:47:55.165Z,25.07
2022-08-17T20:51:40.277Z,25.05
2022-08-17T20:55:08.695Z,25.05
2022-08-17T20:58:50.969Z,25.06
2022-08-17T21:02:23.088Z,25.06
2022-08-17T21:06:17.272Z,25.06
2022-08-17T21:09:45.952Z,25.04
2022-08-17T21:17:40.214Z,24.95
2022-08-17T21:21:20.993Z,24.86
2022-08-17T21:25:00.299Z,24.82
2022-08-17T21:29:00.742Z,24.78
2022-08-17T21:32:35.622Z,24.73
2022-08-17T21:36:29.937Z,24.67
2022-08-17T21:39:59.338Z,24.62
2022-08-17T21:43:32.717Z,24.59
2022-08-17T21:47:22.237Z,24.57
2022-08-17T21:51:02.426Z,24.54
2022-08-17T21:54:36.929Z,24.52
2022-08-17T21:58:13.928Z,24.52
2022-08-17T22:01:44.686Z,24.52
2022-08-17T22:05:30.297Z,24.51
2022-08-17T22:09:17.845Z,24.51
2022-08-17T22:13:16.474Z,24.50
2022-08-17T22:16:44.661Z,24.49
2022-08-17T22:20:19.042Z,24.47
2022-08-17T22:24:08.378Z,24.45
2022-08-17T22:27:51.666Z,24.40
2022-08-17T22:31:25.588Z,24.37
2022-08-17T22:35:35.733Z,24.33
2022-08-17T22:39:24.333Z,24.28
2022-08-17T22:42:55.038Z,24.24
2022-08-17T22:46:25.898Z,24.19
2022-08-17T22:49:58.607Z,24.16
2022-08-17T22:53:43.825Z,24.14
2022-08-17T22:57:34.762Z,24.12
2022-08-17T23:01:26.985Z,24.12
2022-08-17T23:04:57.615Z,24.09
2022-08-17T23:08:24.821Z,24.09
2022-08-17T23:11:58.976Z,24.09
2022-08-17T23:15:32.968Z,24.10
2022-08-17T23:19:00.861Z,24.09
2022-08-17T23:22:31.791Z,24.06
2022-08-17T23:25:59.237Z,24.02
2022-08-17T23:29:29.745Z,23.98
2022-08-17T23:33:00.062Z,23.92
2022-08-17T23:40:33.880Z,23.78
2022-08-17T23:44:02.515Z,23.73
2022-08-17T23:47:29.552Z,23.67
2022-08-17T23:50:59.406Z,23.62
2022-08-17T23:54:44.110Z,23.58
2022-08-17T23:58:11.539Z,23.54
